sensor_id;sensor_type;location;lat;lon;timestamp;temperature;humidity
22635;DHT22;11484;50.858;4.384;2023-01-24T00:01:17;4.20;99.90
22635;DHT22;11484;50.858;4.384;2023-01-24T00:03:42;4.20;99.90
22635;DHT22;11484;50.858;4.384;2023-01-24T00:06:08;4.30;99.90
22635;DHT22;11484;50.858;4.384;2023-01-24T00:08:34;4.30;99.90
22635;DHT22;11484;50.858;4.384;2023-01-24T00:11:01;4.20;99.90
22635;DHT22;11484;50.858;4.384;2023-01-24T00:13:28;4.20;99.90
22635;DHT22;11484;50.858;4.384;2023-01-24T00:18:33;4.20;99.90
22635;DHT22;11484;50.858;4.384;2023-01-24T00:21:10;4.10;99.90
22635;DHT22;11484;50.858;4.384;2023-01-24T00:23:45;4.00;99.90
22635;DHT22;11484;50.858;4.384;2023-01-24T00:26:11;4.00;99.90
22635;DHT22;11484;50.858;4.384;2023-01-24T00:28:37;4.00;99.90
22635;DHT22;11484;50.858;4.384;2023-01-24T00:31:04;4.10;99.90
22635;DHT22;11484;50.858;4.384;2023-01-24T00:33:31;4.20;99.90
22635;DHT22;11484;50.858;4.384;2023-01-24T00:35:56;4.20;99.90
22635;DHT22;11484;50.858;4.384;2023-01-24T00:38:22;4.30;99.90
22635;DHT22;11484;50.858;4.384;2023-01-24T00:40:49;4.30;99.90
22635;DHT22;11484;50.858;4.384;2023-01-24T00:43:14;4.30;99.90
22635;DHT22;11484;50.858;4.384;2023-01-24T00:45:40;4.30;99.90
22635;DHT22;11484;50.858;4.384;2023-01-24T00:48:07;4.20;99.90
22635;DHT22;11484;50.858;4.384;2023-01-24T00:50:34;4.20;99.90
22635;DHT22;11484;50.858;4.384;2023-01-24T00:53:00;4.20;99.90
22635;DHT22;11484;50.858;4.384;2023-01-24T00:55:27;4.20;99.90
22635;DHT22;11484;50.858;4.384;2023-01-24T00:57:53;4.20;99.90
22635;DHT22;11484;50.858;4.384;2023-01-24T01:00:19;4.20;99.90
22635;DHT22;11484;50.858;4.384;2023-01-24T01:02:44;4.20;99.90
22635;DHT22;11484;50.858;4.384;2023-01-24T01:05:10;4.10;99.90
22635;DHT22;11484;50.858;4.384;2023-01-24T01:07:36;4.00;99.90
22635;DHT22;11484;50.858;4.384;2023-01-24T01:10:05;4.00;99.90
22635;DHT22;11484;50.858;4.384;2023-01-24T01:12:30;4.00;99.90
22635;DHT22;11484;50.858;4.384;2023-01-24T01:14:56;4.00;99.90
22635;DHT22;11484;50.858;4.384;2023-01-24T01:17:22;4.00;99.90
22635;DHT22;11484;50.858;4.384;2023-01-24T01:19:51;4.00;99.90
22635;DHT22;11484;50.858;4.384;2023-01-24T01:22:17;4.10;99.90
22635;DHT22;11484;50.858;4.384;2023-01-24T01:24:43;4.10;99.90
22635;DHT22;11484;50.858;4.384;2023-01-24T01:27:08;4.10;99.90
22635;DHT22;11484;50.858;4.384;2023-01-24T01:29:34;4.00;99.90
22635;DHT22;11484;50.858;4.384;2023-01-24T01:32:00;4.10;99.90
22635;DHT22;11484;50.858;4.384;2023-01-24T01:34:25;4.10;99.90
22635;DHT22;11484;50.858;4.384;2023-01-24T01:36:51;4.20;99.90
22635;DHT22;11484;50.858;4.384;2023-01-24T01:39:17;4.30;99.90
22635;DHT22;11484;50.858;4.384;2023-01-24T01:41:42;4.20;99.90
22635;DHT22;11484;50.858;4.384;2023-01-24T01:44:25;4.20;99.90
22635;DHT22;11484;50.858;4.384;2023-01-24T01:47:33;4.20;99.90
22635;DHT22;11484;50.858;4.384;2023-01-24T01:50:07;4.20;99.90
22635;DHT22;11484;50.858;4.384;2023-01-24T01:52:41;4.00;99.90
22635;DHT22;11484;50.858;4.384;2023-01-24T01:55:14;3.90;99.90
22635;DHT22;11484;50.858;4.384;2023-01-24T01:57:41;3.90;99.90
22635;DHT22;11484;50.858;4.384;2023-01-24T02:00:19;4.00;99.90
22635;DHT22;11484;50.858;4.384;2023-01-24T02:02:52;4.00;99.90
22635;DHT22;11484;50.858;4.384;2023-01-24T02:05:21;4.00;99.90
22635;DHT22;11484;50.858;4.384;2023-01-24T02:07:59;3.90;99.90
22635;DHT22;11484;50.858;4.384;2023-01-24T02:10:26;3.80;99.90
22635;DHT22;11484;50.858;4.384;2023-01-24T02:13:13;3.80;99.90
22635;DHT22;11484;50.858;4.384;2023-01-24T02:15:38;3.80;99.90
22635;DHT22;11484;50.858;4.384;2023-01-24T02:18:23;3.80;99.90
22635;DHT22;11484;50.858;4.384;2023-01-24T02:20:49;3.90;99.90
22635;DHT22;11484;50.858;4.384;2023-01-24T02:26:26;4.10;99.90
22635;DHT22;11484;50.858;4.384;2023-01-24T02:28:59;4.10;99.90
22635;DHT22;11484;50.858;4.384;2023-01-24T02:31:26;4.10;99.90
22635;DHT22;11484;50.858;4.384;2023-01-24T02:33:52;4.10;99.90
22635;DHT22;11484;50.858;4.384;2023-01-24T02:36:32;4.00;99.90
22635;DHT22;11484;50.858;4.384;2023-01-24T02:39:01;4.00;99.90
22635;DHT22;11484;50.858;4.384;2023-01-24T02:41:57;4.00;99.90
22635;DHT22;11484;50.858;4.384;2023-01-24T02:44:25;3.90;99.90
22635;DHT22;11484;50.858;4.384;2023-01-24T02:46:53;3.90;99.90
22635;DHT22;11484;50.858;4.384;2023-01-24T02:49:19;3.90;99.90
22635;DHT22;11484;50.858;4.384;2023-01-24T02:51:45;3.90;99.90
22635;DHT22;11484;50.858;4.384;2023-01-24T02:54:29;3.90;99.90
22635;DHT22;11484;50.858;4.384;2023-01-24T02:56:55;4.00;99.90
22635;DHT22;11484;50.858;4.384;2023-01-24T02:59:39;4.00;99.90
22635;DHT22;11484;50.858;4.384;2023-01-24T03:02:04;3.90;99.90
22635;DHT22;11484;50.858;4.384;2023-01-24T03:04:30;3.80;99.90
22635;DHT22;11484;50.858;4.384;2023-01-24T03:06:56;3.90;99.90
22635;DHT22;11484;50.858;4.384;2023-01-24T03:09:21;3.90;99.90
22635;DHT22;11484;50.858;4.384;2023-01-24T03:12:00;4.00;99.90
22635;DHT22;11484;50.858;4.384;2023-01-24T03:14:45;4.00;99.90
22635;DHT22;11484;50.858;4.384;2023-01-24T03:17:29;4.00;99.90
22635;DHT22;11484;50.858;4.384;2023-01-24T03:20:14;3.80;99.90
22635;DHT22;11484;50.858;4.384;2023-01-24T03:22:58;3.90;99.90
22635;DHT22;11484;50.858;4.384;2023-01-24T03:25:42;3.90;99.90
22635;DHT22;11484;50.858;4.384;2023-01-24T03:28:26;3.80;99.90
22635;DHT22;11484;50.858;4.384;2023-01-24T03:31:10;3.80;99.90
22635;DHT22;11484;50.858;4.384;2023-01-24T03:33:54;3.90;99.90
22635;DHT22;11484;50.858;4.384;2023-01-24T03:36:38;3.90;99.90
22635;DHT22;11484;50.858;4.384;2023-01-24T03:39:04;3.80;99.90
22635;DHT22;11484;50.858;4.384;2023-01-24T03:41:48;3.80;99.90
22635;DHT22;11484;50.858;4.384;2023-01-24T03:44:14;3.80;99.90
22635;DHT22;11484;50.858;4.384;2023-01-24T03:46:39;3.90;99.90
22635;DHT22;11484;50.858;4.384;2023-01-24T03:49:08;4.00;99.90
22635;DHT22;11484;50.858;4.384;2023-01-24T03:51:35;4.00;99.90
22635;DHT22;11484;50.858;4.384;2023-01-24T03:54:19;4.00;99.90
22635;DHT22;11484;50.858;4.384;2023-01-24T03:56:45;4.10;99.90
22635;DHT22;11484;50.858;4.384;2023-01-24T03:59:10;4.10;99.90
22635;DHT22;11484;50.858;4.384;2023-01-24T04:01:36;4.00;99.90
22635;DHT22;11484;50.858;4.384;2023-01-24T04:04:02;4.00;99.90
22635;DHT22;11484;50.858;4.384;2023-01-24T04:06:28;3.90;99.90
22635;DHT22;11484;50.858;4.384;2023-01-24T04:08:53;3.80;99.90
22635;DHT22;11484;50.858;4.384;2023-01-24T04:11:19;3.80;99.90
22635;DHT22;11484;50.858;4.384;2023-01-24T04:13:44;3.90;99.90
22635;DHT22;11484;50.858;4.384;2023-01-24T04:16:10;3.90;99.90
22635;DHT22;11484;50.858;4.384;2023-01-24T04:18:36;4.00;99.90
22635;DHT22;11484;50.858;4.384;2023-01-24T04:21:03;3.90;99.90
22635;DHT22;11484;50.858;4.384;2023-01-24T04:23:29;3.80;99.90
22635;DHT22;11484;50.858;4.384;2023-01-24T04:25:55;3.80;99.90
22635;DHT22;11484;50.858;4.384;2023-01-24T04:28:23;3.70;99.90
22635;DHT22;11484;50.858;4.384;2023-01-24T04:30:55;3.80;99.90
22635;DHT22;11484;50.858;4.384;2023-01-24T04:33:21;3.90;99.90
22635;DHT22;11484;50.858;4.384;2023-01-24T04:35:46;4.00;99.90
22635;DHT22;11484;50.858;4.384;2023-01-24T04:38:12;3.90;99.90
22635;DHT22;11484;50.858;4.384;2023-01-24T04:40:38;3.90;99.90
22635;DHT22;11484;50.858;4.384;2023-01-24T04:43:05;3.90;99.90
22635;DHT22;11484;50.858;4.384;2023-01-24T04:45:31;3.90;99.90
22635;DHT22;11484;50.858;4.384;2023-01-24T04:47:57;3.90;99.90
22635;DHT22;11484;50.858;4.384;2023-01-24T04:50:23;3.90;99.90
22635;DHT22;11484;50.858;4.384;2023-01-24T04:52:48;4.00;99.90
22635;DHT22;11484;50.858;4.384;2023-01-24T04:55:14;4.10;99.90
22635;DHT22;11484;50.858;4.384;2023-01-24T04:57:40;4.10;99.90
22635;DHT22;11484;50.858;4.384;2023-01-24T05:00:07;4.00;99.90
22635;DHT22;11484;50.858;4.384;2023-01-24T05:02:36;3.90;99.90
22635;DHT22;11484;50.858;4.384;2023-01-24T05:05:04;3.90;99.90
22635;DHT22;11484;50.858;4.384;2023-01-24T05:07:29;3.90;99.90
22635;DHT22;11484;50.858;4.384;2023-01-24T05:09:55;4.00;99.90
22635;DHT22;11484;50.858;4.384;2023-01-24T05:12:21;3.90;99.90
22635;DHT22;11484;50.858;4.384;2023-01-24T05:14:46;3.90;99.90
22635;DHT22;11484;50.858;4.384;2023-01-24T05:17:12;4.00;99.90
22635;DHT22;11484;50.858;4.384;2023-01-24T05:19:38;4.00;99.90
22635;DHT22;11484;50.858;4.384;2023-01-24T05:22:03;3.90;99.90
22635;DHT22;11484;50.858;4.384;2023-01-24T05:24:29;3.80;99.90
22635;DHT22;11484;50.858;4.384;2023-01-24T05:26:55;3.70;99.90
22635;DHT22;11484;50.858;4.384;2023-01-24T05:29:20;3.80;99.90
22635;DHT22;11484;50.858;4.384;2023-01-24T05:31:46;3.80;99.90
22635;DHT22;11484;50.858;4.384;2023-01-24T05:34:12;3.80;99.90
22635;DHT22;11484;50.858;4.384;2023-01-24T05:36:38;3.80;99.90
22635;DHT22;11484;50.858;4.384;2023-01-24T05:39:03;3.80;99.90
22635;DHT22;11484;50.858;4.384;2023-01-24T05:41:29;3.80;99.90
22635;DHT22;11484;50.858;4.384;2023-01-24T05:43:54;3.80;99.90
22635;DHT22;11484;50.858;4.384;2023-01-24T05:46:21;3.80;99.90
22635;DHT22;11484;50.858;4.384;2023-01-24T05:48:48;3.80;99.90
22635;DHT22;11484;50.858;4.384;2023-01-24T05:51:16;3.70;99.90
22635;DHT22;11484;50.858;4.384;2023-01-24T05:53:43;3.70;99.90
22635;DHT22;11484;50.858;4.384;2023-01-24T05:56:14;3.70;99.90
22635;DHT22;11484;50.858;4.384;2023-01-24T05:58:41;3.80;99.90
22635;DHT22;11484;50.858;4.384;2023-01-24T06:03:41;3.90;99.90
22635;DHT22;11484;50.858;4.384;2023-01-24T06:06:09;3.80;99.90
22635;DHT22;11484;50.858;4.384;2023-01-24T06:08:36;3.70;99.90
22635;DHT22;11484;50.858;4.384;2023-01-24T06:11:07;3.70;99.90
22635;DHT22;11484;50.858;4.384;2023-01-24T06:13:33;3.60;99.90
22635;DHT22;11484;50.858;4.384;2023-01-24T06:16:09;3.60;99.90
22635;DHT22;11484;50.858;4.384;2023-01-24T06:18:35;3.70;99.90
22635;DHT22;11484;50.858;4.384;2023-01-24T06:23:54;3.70;99.90
22635;DHT22;11484;50.858;4.384;2023-01-24T06:26:20;3.70;99.90
22635;DHT22;11484;50.858;4.384;2023-01-24T06:28:46;3.80;99.90
22635;DHT22;11484;50.858;4.384;2023-01-24T06:36:57;3.90;99.90
22635;DHT22;11484;50.858;4.384;2023-01-24T06:39:25;3.80;99.90
22635;DHT22;11484;50.858;4.384;2023-01-24T06:41:51;3.80;99.90
22635;DHT22;11484;50.858;4.384;2023-01-24T06:44:17;3.80;99.90
22635;DHT22;11484;50.858;4.384;2023-01-24T06:46:43;3.70;99.90
22635;DHT22;11484;50.858;4.384;2023-01-24T06:49:10;3.70;99.90
22635;DHT22;11484;50.858;4.384;2023-01-24T06:51:36;3.80;99.90
22635;DHT22;11484;50.858;4.384;2023-01-24T06:54:02;3.80;99.90
22635;DHT22;11484;50.858;4.384;2023-01-24T06:56:32;3.80;99.90
22635;DHT22;11484;50.858;4.384;2023-01-24T06:58:58;3.80;99.90
22635;DHT22;11484;50.858;4.384;2023-01-24T07:01:23;3.90;99.90
22635;DHT22;11484;50.858;4.384;2023-01-24T07:03:49;3.80;99.90
22635;DHT22;11484;50.858;4.384;2023-01-24T07:06:15;3.70;99.90
22635;DHT22;11484;50.858;4.384;2023-01-24T07:08:41;3.70;99.90
22635;DHT22;11484;50.858;4.384;2023-01-24T07:11:07;3.70;99.90
22635;DHT22;11484;50.858;4.384;2023-01-24T07:13:32;3.60;99.90
22635;DHT22;11484;50.858;4.384;2023-01-24T07:16:01;3.70;99.90
22635;DHT22;11484;50.858;4.384;2023-01-24T07:18:27;3.70;99.90
22635;DHT22;11484;50.858;4.384;2023-01-24T07:20:53;3.70;99.90
22635;DHT22;11484;50.858;4.384;2023-01-24T07:23:22;3.80;99.90
22635;DHT22;11484;50.858;4.384;2023-01-24T07:25:51;3.70;99.90
22635;DHT22;11484;50.858;4.384;2023-01-24T07:28:17;3.60;99.90
22635;DHT22;11484;50.858;4.384;2023-01-24T07:30:43;3.70;99.90
22635;DHT22;11484;50.858;4.384;2023-01-24T07:33:11;3.70;99.90
22635;DHT22;11484;50.858;4.384;2023-01-24T07:35:38;3.70;99.90
22635;DHT22;11484;50.858;4.384;2023-01-24T07:38:04;3.70;99.90
22635;DHT22;11484;50.858;4.384;2023-01-24T07:40:31;3.70;99.90
22635;DHT22;11484;50.858;4.384;2023-01-24T07:42:59;3.80;99.90
22635;DHT22;11484;50.858;4.384;2023-01-24T07:45:26;3.90;99.90
22635;DHT22;11484;50.858;4.384;2023-01-24T07:47:58;3.90;99.90
22635;DHT22;11484;50.858;4.384;2023-01-24T07:50:25;3.80;99.90
22635;DHT22;11484;50.858;4.384;2023-01-24T07:52:54;3.90;99.90
22635;DHT22;11484;50.858;4.384;2023-01-24T07:55:21;3.80;99.90
22635;DHT22;11484;50.858;4.384;2023-01-24T07:57:47;3.70;99.90
22635;DHT22;11484;50.858;4.384;2023-01-24T08:00:14;3.60;99.90
22635;DHT22;11484;50.858;4.384;2023-01-24T08:02:41;3.70;99.90
22635;DHT22;11484;50.858;4.384;2023-01-24T08:05:07;3.80;99.90
22635;DHT22;11484;50.858;4.384;2023-01-24T08:07:33;3.80;99.90
22635;DHT22;11484;50.858;4.384;2023-01-24T08:09:58;3.80;99.90
22635;DHT22;11484;50.858;4.384;2023-01-24T08:12:24;3.80;99.90
22635;DHT22;11484;50.858;4.384;2023-01-24T08:14:50;3.80;99.90
22635;DHT22;11484;50.858;4.384;2023-01-24T08:17:16;3.90;99.90
22635;DHT22;11484;50.858;4.384;2023-01-24T08:19:42;3.90;99.90
22635;DHT22;11484;50.858;4.384;2023-01-24T08:22:07;3.90;99.90
22635;DHT22;11484;50.858;4.384;2023-01-24T08:24:33;3.90;99.90
22635;DHT22;11484;50.858;4.384;2023-01-24T08:27:00;4.00;99.90
22635;DHT22;11484;50.858;4.384;2023-01-24T08:29:26;4.10;99.90
22635;DHT22;11484;50.858;4.384;2023-01-24T08:31:52;4.10;99.90
22635;DHT22;11484;50.858;4.384;2023-01-24T08:34:17;4.00;99.90
22635;DHT22;11484;50.858;4.384;2023-01-24T08:36:43;3.90;99.90
22635;DHT22;11484;50.858;4.384;2023-01-24T08:39:09;3.70;99.90
22635;DHT22;11484;50.858;4.384;2023-01-24T08:41:35;3.70;99.90
22635;DHT22;11484;50.858;4.384;2023-01-24T08:44:02;3.80;99.90
22635;DHT22;11484;50.858;4.384;2023-01-24T08:46:29;3.80;99.90
22635;DHT22;11484;50.858;4.384;2023-01-24T08:48:54;3.80;99.90
22635;DHT22;11484;50.858;4.384;2023-01-24T08:51:20;3.80;99.90
22635;DHT22;11484;50.858;4.384;2023-01-24T08:53:46;3.90;99.90
22635;DHT22;11484;50.858;4.384;2023-01-24T08:56:12;3.90;99.90
22635;DHT22;11484;50.858;4.384;2023-01-24T08:58:38;3.80;99.90
22635;DHT22;11484;50.858;4.384;2023-01-24T09:01:07;3.80;99.90
22635;DHT22;11484;50.858;4.384;2023-01-24T09:03:34;3.80;99.90
22635;DHT22;11484;50.858;4.384;2023-01-24T09:06:00;3.90;99.90
22635;DHT22;11484;50.858;4.384;2023-01-24T09:08:25;3.90;99.90
22635;DHT22;11484;50.858;4.384;2023-01-24T09:10:51;3.90;99.90
22635;DHT22;11484;50.858;4.384;2023-01-24T09:13:17;4.10;99.90
22635;DHT22;11484;50.858;4.384;2023-01-24T09:15:43;4.10;99.90
22635;DHT22;11484;50.858;4.384;2023-01-24T09:18:09;4.30;99.90
22635;DHT22;11484;50.858;4.384;2023-01-24T09:20:35;4.40;99.90
22635;DHT22;11484;50.858;4.384;2023-01-24T09:23:13;4.40;99.90
22635;DHT22;11484;50.858;4.384;2023-01-24T09:25:40;4.50;99.90
22635;DHT22;11484;50.858;4.384;2023-01-24T09:28:06;4.30;99.90
22635;DHT22;11484;50.858;4.384;2023-01-24T09:30:33;4.20;99.90
22635;DHT22;11484;50.858;4.384;2023-01-24T09:33:02;4.30;99.90
22635;DHT22;11484;50.858;4.384;2023-01-24T09:35:28;4.30;99.90
22635;DHT22;11484;50.858;4.384;2023-01-24T09:37:53;4.10;99.90
22635;DHT22;11484;50.858;4.384;2023-01-24T09:42:59;3.90;99.90
22635;DHT22;11484;50.858;4.384;2023-01-24T09:45:31;4.00;99.90
22635;DHT22;11484;50.858;4.384;2023-01-24T09:48:00;3.90;99.90
22635;DHT22;11484;50.858;4.384;2023-01-24T09:53:01;4.00;99.90
22635;DHT22;11484;50.858;4.384;2023-01-24T09:55:31;4.10;99.90
22635;DHT22;11484;50.858;4.384;2023-01-24T09:58:04;4.30;99.90
22635;DHT22;11484;50.858;4.384;2023-01-24T10:00:39;4.20;99.90
22635;DHT22;11484;50.858;4.384;2023-01-24T10:03:19;4.10;99.90
22635;DHT22;11484;50.858;4.384;2023-01-24T10:05:51;4.10;99.90
22635;DHT22;11484;50.858;4.384;2023-01-24T10:17:22;4.30;99.90
22635;DHT22;11484;50.858;4.384;2023-01-24T10:23:05;4.50;99.90
22635;DHT22;11484;50.858;4.384;2023-01-24T10:25:55;4.70;99.90
22635;DHT22;11484;50.858;4.384;2023-01-24T10:28:28;4.60;99.90
22635;DHT22;11484;50.858;4.384;2023-01-24T10:30:59;4.40;99.90
22635;DHT22;11484;50.858;4.384;2023-01-24T10:33:31;4.30;99.90
22635;DHT22;11484;50.858;4.384;2023-01-24T10:36:03;4.40;99.90
22635;DHT22;11484;50.858;4.384;2023-01-24T10:38:30;4.60;99.90
22635;DHT22;11484;50.858;4.384;2023-01-24T10:41:14;4.70;99.90
22635;DHT22;11484;50.858;4.384;2023-01-24T10:43:44;4.60;99.90
22635;DHT22;11484;50.858;4.384;2023-01-24T10:46:35;4.70;99.90
22635;DHT22;11484;50.858;4.384;2023-01-24T10:49:10;4.70;99.90
22635;DHT22;11484;50.858;4.384;2023-01-24T10:51:37;4.70;99.90
22635;DHT22;11484;50.858;4.384;2023-01-24T10:54:03;4.50;99.90
22635;DHT22;11484;50.858;4.384;2023-01-24T10:56:29;4.50;99.90
22635;DHT22;11484;50.858;4.384;2023-01-24T10:59:06;4.60;99.90
22635;DHT22;11484;50.858;4.384;2023-01-24T11:01:45;4.70;99.90
22635;DHT22;11484;50.858;4.384;2023-01-24T11:04:26;4.80;99.90
22635;DHT22;11484;50.858;4.384;2023-01-24T11:06:52;4.50;99.90
22635;DHT22;11484;50.858;4.384;2023-01-24T11:09:19;4.40;99.90
22635;DHT22;11484;50.858;4.384;2023-01-24T11:11:56;4.40;99.90
22635;DHT22;11484;50.858;4.384;2023-01-24T11:14:28;4.40;99.90
22635;DHT22;11484;50.858;4.384;2023-01-24T11:16:58;4.50;99.90
22635;DHT22;11484;50.858;4.384;2023-01-24T11:19:32;4.70;99.90
22635;DHT22;11484;50.858;4.384;2023-01-24T11:22:26;4.80;99.90
22635;DHT22;11484;50.858;4.384;2023-01-24T11:25:01;4.80;99.90
22635;DHT22;11484;50.858;4.384;2023-01-24T11:27:28;4.70;99.90
22635;DHT22;11484;50.858;4.384;2023-01-24T11:35:33;5.00;99.90
22635;DHT22;11484;50.858;4.384;2023-01-24T11:41:21;4.60;99.90
22635;DHT22;11484;50.858;4.384;2023-01-24T11:43:58;4.50;99.90
22635;DHT22;11484;50.858;4.384;2023-01-24T12:11:25;5.00;99.90
22635;DHT22;11484;50.858;4.384;2023-01-24T12:22:30;4.70;99.90
22635;DHT22;11484;50.858;4.384;2023-01-24T12:25:02;4.90;99.90
22635;DHT22;11484;50.858;4.384;2023-01-24T12:27:32;4.80;99.90
22635;DHT22;11484;50.858;4.384;2023-01-24T12:30:05;4.70;99.90
22635;DHT22;11484;50.858;4.384;2023-01-24T12:32:48;4.50;99.90
22635;DHT22;11484;50.858;4.384;2023-01-24T12:35:45;4.40;99.90
22635;DHT22;11484;50.858;4.384;2023-01-24T12:41:15;4.70;99.90
22635;DHT22;11484;50.858;4.384;2023-01-24T12:44:05;4.80;99.90
22635;DHT22;11484;50.858;4.384;2023-01-24T12:46:48;4.90;99.90
22635;DHT22;11484;50.858;4.384;2023-01-24T12:49:29;4.70;99.90
22635;DHT22;11484;50.858;4.384;2023-01-24T12:52:20;4.60;99.90
22635;DHT22;11484;50.858;4.384;2023-01-24T12:54:54;4.60;99.90
22635;DHT22;11484;50.858;4.384;2023-01-24T12:57:44;4.80;99.90
22635;DHT22;11484;50.858;4.384;2023-01-24T13:00:20;4.70;99.90
22635;DHT22;11484;50.858;4.384;2023-01-24T13:02:57;4.70;99.90
22635;DHT22;11484;50.858;4.384;2023-01-24T13:05:45;4.70;99.90
22635;DHT22;11484;50.858;4.384;2023-01-24T13:13:43;5.00;99.90
22635;DHT22;11484;50.858;4.384;2023-01-24T13:19:18;5.00;99.90
22635;DHT22;11484;50.858;4.384;2023-01-24T13:24:46;5.10;99.90
22635;DHT22;11484;50.858;4.384;2023-01-24T13:27:38;5.10;99.90
22635;DHT22;11484;50.858;4.384;2023-01-24T13:30:22;5.20;99.90
22635;DHT22;11484;50.858;4.384;2023-01-24T13:32:50;5.50;99.90
22635;DHT22;11484;50.858;4.384;2023-01-24T13:35:23;5.30;99.90
22635;DHT22;11484;50.858;4.384;2023-01-24T13:37:57;5.10;99.90
22635;DHT22;11484;50.858;4.384;2023-01-24T13:40:29;4.90;99.90
22635;DHT22;11484;50.858;4.384;2023-01-24T13:43:03;4.80;99.90
22635;DHT22;11484;50.858;4.384;2023-01-24T13:45:49;4.70;99.90
22635;DHT22;11484;50.858;4.384;2023-01-24T13:51:22;4.70;99.90
22635;DHT22;11484;50.858;4.384;2023-01-24T13:57:21;4.80;99.90
22635;DHT22;11484;50.858;4.384;2023-01-24T14:07:57;4.80;99.90
22635;DHT22;11484;50.858;4.384;2023-01-24T14:10:38;4.80;99.90
22635;DHT22;11484;50.858;4.384;2023-01-24T14:13:04;5.00;99.90
22635;DHT22;11484;50.858;4.384;2023-01-24T14:15:38;5.00;99.90
22635;DHT22;11484;50.858;4.384;2023-01-24T14:21:19;4.90;99.90
22635;DHT22;11484;50.858;4.384;2023-01-24T14:23:49;4.70;99.90
22635;DHT22;11484;50.858;4.384;2023-01-24T14:26:20;4.60;99.90
22635;DHT22;11484;50.858;4.384;2023-01-24T14:28:51;4.60;99.90
22635;DHT22;11484;50.858;4.384;2023-01-24T14:31:31;4.50;99.90
22635;DHT22;11484;50.858;4.384;2023-01-24T14:34:20;4.50;99.90
22635;DHT22;11484;50.858;4.384;2023-01-24T14:36:49;4.50;99.90
22635;DHT22;11484;50.858;4.384;2023-01-24T14:39:23;4.60;99.90
22635;DHT22;11484;50.858;4.384;2023-01-24T14:42:00;4.60;99.90
22635;DHT22;11484;50.858;4.384;2023-01-24T14:44:30;4.50;99.90
22635;DHT22;11484;50.858;4.384;2023-01-24T14:47:06;4.60;99.90
22635;DHT22;11484;50.858;4.384;2023-01-24T14:49:52;4.60;99.90
22635;DHT22;11484;50.858;4.384;2023-01-24T14:52:20;4.70;99.90
22635;DHT22;11484;50.858;4.384;2023-01-24T14:54:55;4.80;99.90
22635;DHT22;11484;50.858;4.384;2023-01-24T15:00:26;4.70;99.90
22635;DHT22;11484;50.858;4.384;2023-01-24T15:03:05;4.70;99.90
22635;DHT22;11484;50.858;4.384;2023-01-24T15:05:33;4.70;99.90
22635;DHT22;11484;50.858;4.384;2023-01-24T15:08:06;4.50;99.90
22635;DHT22;11484;50.858;4.384;2023-01-24T15:10:42;4.30;99.90
22635;DHT22;11484;50.858;4.384;2023-01-24T15:13:25;4.20;99.90
22635;DHT22;11484;50.858;4.384;2023-01-24T15:16:01;4.30;99.90
22635;DHT22;11484;50.858;4.384;2023-01-24T15:21:31;4.30;99.90
22635;DHT22;11484;50.858;4.384;2023-01-24T15:23:58;4.30;99.90
22635;DHT22;11484;50.858;4.384;2023-01-24T15:26:37;4.20;99.90
22635;DHT22;11484;50.858;4.384;2023-01-24T15:31:49;4.10;99.90
22635;DHT22;11484;50.858;4.384;2023-01-24T15:34:20;4.20;99.90
22635;DHT22;11484;50.858;4.384;2023-01-24T15:36:56;4.30;99.90
22635;DHT22;11484;50.858;4.384;2023-01-24T15:39:23;4.40;99.90
22635;DHT22;11484;50.858;4.384;2023-01-24T15:41:49;4.30;99.90
22635;DHT22;11484;50.858;4.384;2023-01-24T15:44:42;4.30;99.90
22635;DHT22;11484;50.858;4.384;2023-01-24T15:47:22;4.30;99.90
22635;DHT22;11484;50.858;4.384;2023-01-24T15:50:19;4.30;99.90
22635;DHT22;11484;50.858;4.384;2023-01-24T15:53:23;4.20;99.90
22635;DHT22;11484;50.858;4.384;2023-01-24T15:55:50;4.20;99.90
22635;DHT22;11484;50.858;4.384;2023-01-24T15:58:16;4.30;99.90
22635;DHT22;11484;50.858;4.384;2023-01-24T16:00:56;4.20;99.90
22635;DHT22;11484;50.858;4.384;2023-01-24T16:03:22;4.10;99.90
22635;DHT22;11484;50.858;4.384;2023-01-24T16:05:48;4.10;99.90
22635;DHT22;11484;50.858;4.384;2023-01-24T16:08:13;4.10;99.90
22635;DHT22;11484;50.858;4.384;2023-01-24T16:10:40;4.10;99.90
22635;DHT22;11484;50.858;4.384;2023-01-24T16:13:10;4.10;99.90
22635;DHT22;11484;50.858;4.384;2023-01-24T16:15:38;4.20;99.90
22635;DHT22;11484;50.858;4.384;2023-01-24T16:18:03;4.20;99.90
22635;DHT22;11484;50.858;4.384;2023-01-24T16:20:30;4.10;99.90
22635;DHT22;11484;50.858;4.384;2023-01-24T16:22:56;4.10;99.90
22635;DHT22;11484;50.858;4.384;2023-01-24T16:25:22;4.20;99.90
22635;DHT22;11484;50.858;4.384;2023-01-24T16:27:49;4.20;99.90
22635;DHT22;11484;50.858;4.384;2023-01-24T16:30:22;4.20;99.90
22635;DHT22;11484;50.858;4.384;2023-01-24T16:32:48;4.20;99.90
22635;DHT22;11484;50.858;4.384;2023-01-24T16:35:14;4.10;99.90
22635;DHT22;11484;50.858;4.384;2023-01-24T16:37:40;4.00;99.90
22635;DHT22;11484;50.858;4.384;2023-01-24T16:40:08;4.10;99.90
22635;DHT22;11484;50.858;4.384;2023-01-24T16:42:41;4.20;99.90
22635;DHT22;11484;50.858;4.384;2023-01-24T16:45:12;4.30;99.90
22635;DHT22;11484;50.858;4.384;2023-01-24T16:47:38;4.30;99.90
22635;DHT22;11484;50.858;4.384;2023-01-24T16:50:04;4.30;99.90
22635;DHT22;11484;50.858;4.384;2023-01-24T16:52:30;4.40;99.90
22635;DHT22;11484;50.858;4.384;2023-01-24T16:54:56;4.40;99.90
22635;DHT22;11484;50.858;4.384;2023-01-24T16:57:23;4.50;99.90
22635;DHT22;11484;50.858;4.384;2023-01-24T16:59:50;4.40;99.90
22635;DHT22;11484;50.858;4.384;2023-01-24T17:02:16;4.50;99.90
22635;DHT22;11484;50.858;4.384;2023-01-24T17:04:42;4.40;99.90
22635;DHT22;11484;50.858;4.384;2023-01-24T17:07:08;4.40;99.90
22635;DHT22;11484;50.858;4.384;2023-01-24T17:09:34;4.40;99.90
22635;DHT22;11484;50.858;4.384;2023-01-24T17:12:18;4.30;99.90
22635;DHT22;11484;50.858;4.384;2023-01-24T17:14:44;4.40;99.90
22635;DHT22;11484;50.858;4.384;2023-01-24T17:17:10;4.50;99.90
22635;DHT22;11484;50.858;4.384;2023-01-24T17:19:36;4.40;99.90
22635;DHT22;11484;50.858;4.384;2023-01-24T17:22:02;4.50;99.90
22635;DHT22;11484;50.858;4.384;2023-01-24T17:24:28;4.30;99.90
22635;DHT22;11484;50.858;4.384;2023-01-24T17:26:57;4.20;99.90
22635;DHT22;11484;50.858;4.384;2023-01-24T17:29:23;4.20;99.90
22635;DHT22;11484;50.858;4.384;2023-01-24T17:31:53;4.20;99.90
22635;DHT22;11484;50.858;4.384;2023-01-24T17:34:19;4.30;99.90
22635;DHT22;11484;50.858;4.384;2023-01-24T17:36:45;4.40;99.90
22635;DHT22;11484;50.858;4.384;2023-01-24T17:39:11;4.40;99.90
22635;DHT22;11484;50.858;4.384;2023-01-24T17:41:37;4.20;99.90
22635;DHT22;11484;50.858;4.384;2023-01-24T17:44:04;4.10;99.90
22635;DHT22;11484;50.858;4.384;2023-01-24T17:46:33;4.00;99.90
22635;DHT22;11484;50.858;4.384;2023-01-24T17:48:59;3.80;99.90
22635;DHT22;11484;50.858;4.384;2023-01-24T17:51:34;3.90;99.90
22635;DHT22;11484;50.858;4.384;2023-01-24T17:54:05;3.80;99.90
22635;DHT22;11484;50.858;4.384;2023-01-24T17:56:31;3.70;99.90
22635;DHT22;11484;50.858;4.384;2023-01-24T17:59:03;3.70;99.90
22635;DHT22;11484;50.858;4.384;2023-01-24T18:01:29;3.70;99.90